createdAt,value
2023-02-03T00:00:42.343Z,100444.28
2023-02-03T00:03:08.914Z,100446.78
2023-02-03T00:05:36.546Z,100449.69
2023-02-03T00:08:04.807Z,100443.66
2023-02-03T00:10:31.350Z,100442.81
2023-02-03T00:12:58.071Z,100445.84
2023-02-03T00:15:24.468Z,100448.34
2023-02-03T00:17:50.901Z,100445.94
2023-02-03T00:20:17.453Z,100460.75
2023-02-03T00:22:43.864Z,100461.59
2023-02-03T00:25:10.377Z,100460.66
2023-02-03T00:27:36.916Z,100451.59
2023-02-03T00:30:04.134Z,100463.31
2023-02-03T00:32:30.793Z,100458.94
2023-02-03T00:35:00.108Z,100459.69
2023-02-03T00:37:26.543Z,100462.31
2023-02-03T00:39:53.165Z,100458.25
2023-02-03T00:42:19.619Z,100458.34
2023-02-03T00:44:46.002Z,100461.84
2023-02-03T00:47:12.365Z,100462.66
2023-02-03T00:49:38.848Z,100463.31
2023-02-03T00:52:05.523Z,100459.44
2023-02-03T00:54:33.655Z,100458.47
2023-02-03T00:57:00.191Z,100456.53
2023-02-03T00:59:26.629Z,100460.16
2023-02-03T01:01:53.117Z,100475.19
2023-02-03T01:04:19.867Z,100493.03
2023-02-03T01:06:47.675Z,100485.44
2023-02-03T01:09:14.066Z,100487.13
2023-02-03T01:11:40.723Z,100476.31
2023-02-03T01:14:07.423Z,100490.88
2023-02-03T01:16:33.847Z,100490.72
2023-02-03T01:19:00.406Z,100479.19
2023-02-03T01:21:26.926Z,100470.38
2023-02-03T01:23:54.275Z,100453.78
2023-02-03T01:26:22.565Z,100431.75
2023-02-03T01:28:53.983Z,100421.41
2023-02-03T01:31:29.991Z,100433.78
2023-02-03T01:33:57.227Z,100434.66
2023-02-03T01:36:26.069Z,100446.31
2023-02-03T01:38:53.742Z,100453.88
2023-02-03T01:41:22.823Z,100443.28
2023-02-03T01:43:51.980Z,100443.19
2023-02-03T01:46:35.907Z,100432.69
2023-02-03T01:49:13.312Z,100427.41
2023-02-03T01:51:42.073Z,100433.53
2023-02-03T01:54:16.836Z,100428.00
2023-02-03T01:56:48.074Z,100422.59
2023-02-03T01:59:17.725Z,100417.03
2023-02-03T02:01:44.792Z,100416.22
2023-02-03T02:04:11.715Z,100428.63
2023-02-03T02:06:38.487Z,100443.78
2023-02-03T02:09:05.298Z,100439.31
2023-02-03T02:11:31.794Z,100421.03
2023-02-03T02:14:02.458Z,100426.56
2023-02-03T02:16:41.462Z,100425.97
2023-02-03T02:19:31.189Z,100425.97
2023-02-03T02:22:31.469Z,100425.13
2023-02-03T02:25:52.052Z,100423.56
2023-02-03T02:28:40.232Z,100416.34
2023-02-03T02:31:41.243Z,100399.59
2023-02-03T02:34:15.043Z,100399.47
2023-02-03T02:37:04.711Z,100412.59
2023-02-03T02:39:51.173Z,100409.94
2023-02-03T02:42:22.720Z,100401.63
2023-02-03T02:44:58.470Z,100379.72
2023-02-03T02:47:25.288Z,100376.38
2023-02-03T02:50:01.245Z,100379.13
2023-02-03T02:52:31.553Z,100378.38
2023-02-03T02:55:02.467Z,100373.22
2023-02-03T02:57:29.417Z,100418.38
2023-02-03T02:59:56.362Z,100420.03
2023-02-03T03:02:22.898Z,100414.88
2023-02-03T03:04:51.077Z,100421.84
2023-02-03T03:07:24.012Z,100424.66
2023-02-03T03:10:00.256Z,100427.28
2023-02-03T03:12:31.233Z,100427.41
2023-02-03T03:15:21.785Z,100415.13
2023-02-03T03:17:58.822Z,100415.38
2023-02-03T03:20:27.911Z,100421.66
2023-02-03T03:23:09.323Z,100417.06
2023-02-03T03:25:46.992Z,100425.00
2023-02-03T03:28:22.384Z,100410.66
2023-02-03T03:30:49.160Z,100417.28
2023-02-03T03:33:18.201Z,100408.41
2023-02-03T03:35:59.022Z,100413.69
2023-02-03T03:38:33.440Z,100423.31
2023-02-03T03:41:07.201Z,100425.84
2023-02-03T03:43:38.789Z,100429.94
2023-02-03T03:46:20.930Z,100436.19
2023-02-03T03:49:02.972Z,100444.75
2023-02-03T03:51:37.826Z,100449.56
2023-02-03T03:54:09.711Z,100460.03
2023-02-03T03:56:46.733Z,100469.78
2023-02-03T03:59:16.437Z,100478.31
2023-02-03T04:01:43.121Z,100479.19
2023-02-03T04:04:11.098Z,100475.69
2023-02-03T04:06:39.206Z,100476.53
2023-02-03T04:09:06.712Z,100488.81
2023-02-03T04:11:33.466Z,100480.13
2023-02-03T04:13:59.869Z,100476.41
2023-02-03T04:16:26.301Z,100460.66
2023-02-03T04:18:52.734Z,100465.94
2023-02-03T04:21:19.181Z,100451.84
2023-02-03T04:23:45.506Z,100460.66
2023-02-03T04:26:11.887Z,100471.25
2023-02-03T04:28:38.242Z,100477.72
2023-02-03T04:31:04.838Z,100474.38
2023-02-03T04:33:31.413Z,100481.00
2023-02-03T04:35:58.138Z,100489.03
2023-02-03T04:38:24.559Z,100494.47
2023-02-03T04:40:51.225Z,100488.34
2023-02-03T04:43:17.599Z,100489.19
2023-02-03T04:45:44.098Z,100494.72
2023-02-03T04:48:10.899Z,100498.19
2023-02-03T04:50:38.329Z,100503.84
2023-02-03T04:53:04.668Z,100513.72
2023-02-03T04:55:31.177Z,100508.53
2023-02-03T04:57:59.253Z,100515.53
2023-02-03T05:00:27.116Z,100514.69
2023-02-03T05:02:53.607Z,100514.69
2023-02-03T05:05:20.233Z,100505.78
2023-02-03T05:07:46.704Z,100500.34
2023-02-03T05:10:13.326Z,100517.34
2023-02-03T05:12:39.780Z,100518.88
2023-02-03T05:15:06.577Z,100517.47
2023-02-03T05:17:33.149Z,100524.91
2023-02-03T05:19:59.750Z,100524.44
2023-02-03T05:22:26.281Z,100536.94
2023-02-03T05:24:52.895Z,100531.63
2023-02-03T05:27:20.083Z,100535.50
2023-02-03T05:29:46.498Z,100524.91
2023-02-03T05:32:13.166Z,100521.03
2023-02-03T05:34:42.007Z,100506.25
2023-02-03T05:37:08.751Z,100511.06
2023-02-03T05:39:35.136Z,100520.81
2023-02-03T05:42:01.583Z,100535.50
2023-02-03T05:44:28.734Z,100537.44
2023-02-03T05:46:57.508Z,100546.31
2023-02-03T05:49:24.262Z,100555.00
2023-02-03T05:51:52.360Z,100541.16
2023-02-03T05:54:19.148Z,100541.25
2023-02-03T05:56:45.556Z,100538.97
2023-02-03T05:59:12.111Z,100527.31
2023-02-03T06:01:38.975Z,100509.94
2023-02-03T06:04:06.073Z,100507.53
2023-02-03T06:06:32.739Z,100500.56
2023-02-03T06:09:06.428Z,100504.91
2023-02-03T06:11:33.526Z,100506.59
2023-02-03T06:14:00.531Z,100504.19
2023-02-03T06:16:29.035Z,100509.94
2023-02-03T06:18:56.781Z,100495.78
2023-02-03T06:21:23.309Z,100498.44
2023-02-03T06:23:50.006Z,100511.44
2023-02-03T06:26:16.574Z,100508.66
2023-02-03T06:28:42.927Z,100504.19
2023-02-03T06:31:09.501Z,100497.13
2023-02-03T06:33:36.131Z,100500.59
2023-02-03T06:36:02.656Z,100506.97
2023-02-03T06:38:29.058Z,100507.34
2023-02-03T06:40:55.503Z,100492.06
2023-02-03T06:43:21.945Z,100488.81
2023-02-03T06:45:48.436Z,100510.72
2023-02-03T06:48:15.478Z,100503.00
2023-02-03T06:50:43.134Z,100496.97
2023-02-03T06:53:09.640Z,100498.91
2023-02-03T06:55:36.280Z,100496.47
2023-02-03T06:58:02.894Z,100472.91
2023-02-03T07:00:29.671Z,100472.44
2023-02-03T07:02:58.276Z,100482.28
2023-02-03T07:05:26.448Z,100474.25
2023-02-03T07:07:52.925Z,100474.00
2023-02-03T07:10:19.643Z,100472.06
2023-02-03T07:12:45.988Z,100470.00
2023-02-03T07:15:13.029Z,100480.50
2023-02-03T07:17:39.542Z,100488.31
2023-02-03T07:20:06.287Z,100472.19
2023-02-03T07:22:32.668Z,100477.25
2023-02-03T07:24:59.295Z,100469.44
2023-02-03T07:27:27.077Z,100468.34
2023-02-03T07:29:53.795Z,100451.63
2023-02-03T07:32:20.204Z,100461.25
2023-02-03T07:34:46.616Z,100456.44
2023-02-03T07:37:13.073Z,100461.59
2023-02-03T07:39:39.669Z,100462.94
2023-02-03T07:42:06.138Z,100457.50
2023-02-03T07:44:32.568Z,100452.69
2023-02-03T07:46:58.883Z,100455.44
2023-02-03T07:49:25.337Z,100457.16
2023-02-03T07:51:51.961Z,100475.56
2023-02-03T07:54:18.631Z,100493.41
2023-02-03T07:56:44.980Z,100490.13
2023-02-03T07:59:11.429Z,100501.69
2023-02-03T08:01:37.908Z,100525.66
2023-02-03T08:04:04.614Z,100527.56
2023-02-03T08:06:31.383Z,100524.56
2023-02-03T08:09:00.049Z,100532.41
2023-02-03T08:11:28.931Z,100544.31
2023-02-03T08:13:55.683Z,100542.50
2023-02-03T08:16:22.253Z,100538.19
2023-02-03T08:18:48.704Z,100555.41
2023-02-03T08:21:15.055Z,100548.31
2023-02-03T08:23:41.425Z,100537.72
2023-02-03T08:26:07.821Z,100538.56
2023-02-03T08:28:34.855Z,100536.59
2023-02-03T08:31:01.393Z,100532.63
2023-02-03T08:33:32.636Z,100540.34
2023-02-03T08:35:59.337Z,100538.66
2023-02-03T08:38:26.007Z,100549.13
2023-02-03T08:40:52.516Z,100533.38
2023-02-03T08:43:19.475Z,100541.31
2023-02-03T08:45:48.894Z,100536.72
2023-02-03T08:48:15.615Z,100543.00
2023-02-03T08:50:45.920Z,100559.03
2023-02-03T08:53:14.760Z,100579.13
2023-02-03T08:55:41.670Z,100581.53
2023-02-03T08:58:08.130Z,100573.09
2023-02-03T09:00:35.254Z,100552.78
2023-02-03T09:03:02.729Z,100557.19
2023-02-03T09:05:30.839Z,100560.72
2023-02-03T09:07:57.903Z,100559.25
2023-02-03T09:10:24.372Z,100572.16
2023-02-03T09:12:50.876Z,100560.59
2023-02-03T09:15:17.461Z,100541.28
2023-02-03T09:17:44.500Z,100545.78
2023-02-03T09:20:11.600Z,100558.88
2023-02-03T09:22:38.394Z,100542.75
2023-02-03T09:25:06.391Z,100544.06
2023-02-03T09:27:33.272Z,100539.34
2023-02-03T09:30:00.834Z,100528.16
2023-02-03T09:32:27.367Z,100525.34
2023-02-03T09:34:53.813Z,100533.78
2023-02-03T09:37:20.772Z,100532.50
2023-02-03T09:39:47.921Z,100531.31
2023-02-03T09:42:34.511Z,100544.81
2023-02-03T09:45:26.083Z,100533.97
2023-02-03T09:47:54.704Z,100526.13
2023-02-03T09:50:24.942Z,100515.72
2023-02-03T09:52:52.530Z,100510.75
2023-02-03T09:55:44.094Z,100496.50
2023-02-03T09:58:21.636Z,100486.59
2023-02-03T10:00:53.159Z,100494.44
2023-02-03T10:03:32.759Z,100478.13
2023-02-03T10:06:30.982Z,100479.28
2023-02-03T10:09:16.146Z,100449.31
2023-02-03T10:12:08.847Z,100443.88
2023-02-03T10:14:50.754Z,100442.94
2023-02-03T10:17:27.861Z,100450.94
2023-02-03T10:20:02.352Z,100448.38
2023-02-03T10:22:32.460Z,100454.78
2023-02-03T10:25:41.673Z,100462.59
2023-02-03T10:28:19.867Z,100433.47
2023-02-03T10:30:50.472Z,100443.41
2023-02-03T10:33:18.888Z,100431.63
2023-02-03T10:36:01.626Z,100424.38
2023-02-03T10:38:37.134Z,100438.25
2023-02-03T10:41:04.327Z,100427.09
2023-02-03T10:43:32.747Z,100455.69
2023-02-03T10:45:59.457Z,100453.47
2023-02-03T10:48:26.329Z,100460.88
2023-02-03T10:50:54.959Z,100458.16
2023-02-03T10:53:43.477Z,100462.22
2023-02-03T10:56:16.207Z,100441.59
2023-02-03T10:58:52.534Z,100433.41
2023-02-03T11:01:22.087Z,100439.84
2023-02-03T11:03:58.802Z,100431.84
2023-02-03T11:06:25.804Z,100430.84
2023-02-03T11:08:52.789Z,100423.38
2023-02-03T11:11:25.390Z,100411.50
2023-02-03T11:14:04.975Z,100377.09
2023-02-03T11:16:34.586Z,100381.06
2023-02-03T11:19:16.053Z,100373.22
2023-02-03T11:21:47.819Z,100373.22
2023-02-03T11:24:31.525Z,100351.91
2023-02-03T11:27:05.993Z,100356.97
2023-02-03T11:30:06.908Z,100357.94
2023-02-03T11:32:37.773Z,100362.81
2023-02-03T11:35:13.270Z,100384.56
2023-02-03T11:37:42.273Z,100370.59
2023-02-03T11:40:08.984Z,100376.31
2023-02-03T11:42:38.134Z,100413.91
2023-02-03T11:45:27.878Z,100435.03
2023-02-03T11:48:16.204Z,100428.38
2023-02-03T11:50:57.520Z,100431.53
2023-02-03T11:53:56.968Z,100423.91
2023-02-03T11:57:09.312Z,100435.38
2023-02-03T11:59:46.222Z,100443.38
2023-02-03T12:02:30.631Z,100436.28
2023-02-03T12:05:29.285Z,100417.41
2023-02-03T12:08:17.572Z,100409.19
2023-02-03T12:11:32.385Z,100403.53
2023-02-03T12:14:17.114Z,100398.06
2023-02-03T12:16:52.456Z,100392.34
2023-02-03T12:19:32.090Z,100369.75
2023-02-03T12:22:26.734Z,100357.44
2023-02-03T12:25:32.294Z,100360.75
2023-02-03T12:28:33.303Z,100352.81
2023-02-03T12:31:29.415Z,100339.53
2023-02-03T12:34:14.730Z,100332.09
2023-02-03T12:36:49.486Z,100334.94
2023-02-03T12:39:21.695Z,100334.75
2023-02-03T12:42:14.959Z,100334.47
2023-02-03T12:45:05.871Z,100309.28
2023-02-03T12:47:50.996Z,100301.31
2023-02-03T12:50:20.323Z,100292.41
2023-02-03T12:53:05.851Z,100261.09
2023-02-03T12:55:53.232Z,100250.19
2023-02-03T12:58:35.516Z,100251.44
2023-02-03T13:01:36.631Z,100253.66
2023-02-03T13:04:13.079Z,100269.97
2023-02-03T13:07:06.446Z,100247.78
2023-02-03T13:09:45.805Z,100252.53
2023-02-03T13:12:23.809Z,100251.66
2023-02-03T13:14:57.062Z,100248.88
2023-02-03T13:17:37.954Z,100251.13
2023-02-03T13:20:19.127Z,100265.13
2023-02-03T13:22:46.462Z,100236.47
2023-02-03T13:25:35.367Z,100211.78
2023-02-03T13:28:11.197Z,100201.31
2023-02-03T13:30:56.852Z,100194.56
2023-02-03T13:33:44.660Z,100196.13
2023-02-03T13:36:34.263Z,100167.06
2023-02-03T13:39:13.214Z,100162.59
2023-02-03T13:42:02.805Z,100145.56
2023-02-03T13:44:29.757Z,100145.69
2023-02-03T13:46:59.163Z,100137.59
2023-02-03T13:49:37.053Z,100122.63
2023-02-03T13:52:03.735Z,100103.63
2023-02-03T13:54:43.468Z,100116.19
2023-02-03T13:57:32.255Z,100106.56
2023-02-03T13:59:58.716Z,100098.72
2023-02-03T14:02:25.059Z,100084.47
2023-02-03T14:04:57.151Z,100093.53
2023-02-03T14:07:37.081Z,100102.22
2023-02-03T14:10:20.654Z,100097.16
2023-02-03T14:12:49.809Z,100099.13
2023-02-03T14:15:25.288Z,100103.75
2023-02-03T14:18:03.803Z,100105.13
2023-02-03T14:20:30.228Z,100097.16
2023-02-03T14:23:05.775Z,100084.44
2023-02-03T14:25:39.203Z,100098.56
2023-02-03T14:28:10.291Z,100110.47
2023-02-03T14:31:07.914Z,100109.47
2023-02-03T14:33:58.443Z,100107.94
2023-02-03T14:36:27.871Z,100096.63
2023-02-03T14:38:56.256Z,100080.94
2023-02-03T14:41:37.047Z,100085.28
2023-02-03T14:44:30.968Z,100070.16
2023-02-03T14:47:08.111Z,100073.09
2023-02-03T14:50:16.599Z,100078.13
2023-02-03T14:53:07.000Z,100086.69
2023-02-03T14:55:42.401Z,100091.28
2023-02-03T14:58:25.865Z,100096.59
2023-02-03T15:00:52.300Z,100084.59
2023-02-03T15:03:21.062Z,100092.41
2023-02-03T15:05:50.963Z,100083.59
2023-02-03T15:08:35.066Z,100097.00
2023-02-03T15:11:25.441Z,100095.22
2023-02-03T15:13:51.868Z,100108.78
2023-02-03T15:16:23.462Z,100104.44
2023-02-03T15:19:00.862Z,100093.81
2023-02-03T15:21:27.466Z,100103.06
2023-02-03T15:23:54.383Z,100096.75
2023-02-03T15:26:24.125Z,100093.13
2023-02-03T15:29:20.729Z,100109.47
2023-02-03T15:31:50.974Z,100118.28
2023-02-03T15:34:29.947Z,100131.84
2023-02-03T15:37:01.631Z,100128.22
2023-02-03T15:39:38.978Z,100137.84
2023-02-03T15:42:12.063Z,100152.25
2023-02-03T15:44:46.255Z,100163.03
2023-02-03T15:47:42.996Z,100172.09
2023-02-03T15:50:29.085Z,100180.91
2023-02-03T15:52:59.414Z,100197.84
2023-02-03T15:55:39.228Z,100209.41
2023-02-03T15:58:06.273Z,100204.53
2023-02-03T16:00:40.351Z,100217.81
2023-02-03T16:03:18.954Z,100235.28
2023-02-03T16:05:46.708Z,100251.63
2023-02-03T16:08:36.790Z,100273.00
2023-02-03T16:11:21.457Z,100275.50
2023-02-03T16:13:48.131Z,100270.34
2023-02-03T16:16:29.616Z,100273.28
2023-02-03T16:19:09.502Z,100292.97
2023-02-03T16:21:48.179Z,100282.63
2023-02-03T16:24:36.277Z,100290.84
2023-02-03T16:27:27.816Z,100301.75
2023-02-03T16:30:15.307Z,100314.28
2023-02-03T16:32:41.764Z,100302.56
2023-02-03T16:35:10.287Z,100303.00
2023-02-03T16:37:44.973Z,100301.28
2023-02-03T16:40:14.314Z,100309.25
2023-02-03T16:42:40.721Z,100310.13
2023-02-03T16:45:17.504Z,100321.00
2023-02-03T16:47:45.762Z,100324.34
2023-02-03T16:50:36.472Z,100326.31
2023-02-03T16:53:05.241Z,100333.56
2023-02-03T16:55:31.893Z,100340.53
2023-02-03T16:57:59.530Z,100345.16
2023-02-03T17:00:26.209Z,100347.22
2023-02-03T17:02:53.094Z,100344.44
2023-02-03T17:05:21.869Z,100351.69
2023-02-03T17:07:48.398Z,100354.47
2023-02-03T17:10:17.179Z,100357.72
2023-02-03T17:12:43.614Z,100373.06
2023-02-03T17:15:10.147Z,100379.31
2023-02-03T17:17:37.044Z,100386.34
2023-02-03T17:20:04.263Z,100394.41
2023-02-03T17:22:30.771Z,100394.16
2023-02-03T17:24:57.409Z,100393.19
2023-02-03T17:27:23.881Z,100389.94
2023-02-03T17:29:50.585Z,100392.75
2023-02-03T17:32:17.235Z,100396.69
2023-02-03T17:34:44.077Z,100402.38
2023-02-03T17:37:10.458Z,100401.41
2023-02-03T17:55:43.465Z,100425.44
2023-02-03T17:58:09.870Z,100424.31
2023-02-03T18:00:39.281Z,100426.25
2023-02-03T18:03:06.650Z,100417.19
2023-02-03T18:05:33.043Z,100430.22
2023-02-03T18:08:03.352Z,100417.91
2023-02-03T18:10:35.996Z,100424.31
2023-02-03T18:13:02.811Z,100424.44
2023-02-03T18:15:29.378Z,100431.72
2023-02-03T18:17:55.753Z,100426.50
2023-02-03T18:20:22.488Z,100441.75
2023-02-03T18:22:48.927Z,100439.69
2023-02-03T18:25:15.455Z,100431.56
2023-02-03T18:27:42.124Z,100434.78
2023-02-03T18:30:09.558Z,100425.56
2023-02-03T18:32:36.003Z,100429.44
2023-02-03T18:35:02.806Z,100435.31
2023-02-03T18:37:29.786Z,100432.09
2023-02-03T18:39:56.219Z,100431.25
2023-02-03T18:42:22.579Z,100422.31
2023-02-03T18:44:48.975Z,100431.38
2023-02-03T18:47:15.313Z,100430.63
2023-02-03T18:49:45.120Z,100427.16
2023-02-03T18:52:11.862Z,100435.09
2023-02-03T18:54:38.273Z,100437.63
2023-02-03T18:57:06.155Z,100447.53
2023-02-03T18:59:32.652Z,100452.28
2023-02-03T19:01:59.550Z,100451.66
2023-02-03T19:04:26.100Z,100474.84
2023-02-03T19:06:53.842Z,100462.66
2023-02-03T19:09:20.247Z,100470.75
2023-02-03T19:11:46.691Z,100472.94
2023-02-03T19:14:13.968Z,100472.94
2023-02-03T19:16:40.730Z,100468.34
2023-02-03T19:19:07.214Z,100465.69
2023-02-03T19:21:33.947Z,100477.16
2023-02-03T19:24:05.212Z,100484.97
2023-02-03T19:26:31.872Z,100486.91
2023-02-03T19:28:59.092Z,100467.41
2023-02-03T19:31:25.496Z,100462.34
2023-02-03T19:33:52.088Z,100471.88
2023-02-03T19:36:19.892Z,100470.88
2023-02-03T19:38:46.297Z,100476.19
2023-02-03T19:41:13.818Z,100478.00
2023-02-03T19:43:40.330Z,100488.47
2023-02-03T19:46:08.084Z,100491.97
2023-02-03T19:48:38.653Z,100495.34
2023-02-03T19:51:05.878Z,100492.69
2023-02-03T19:53:32.336Z,100505.94
2023-02-03T19:56:02.277Z,100505.22
2023-02-03T19:58:30.128Z,100493.78
2023-02-03T20:00:56.871Z,100490.19
2023-02-03T20:03:23.845Z,100495.09
2023-02-03T20:05:53.859Z,100487.84
2023-02-03T20:08:20.482Z,100482.41
2023-02-03T20:10:47.026Z,100482.16
2023-02-03T20:13:14.255Z,100479.50
2023-02-03T20:15:41.587Z,100482.28
2023-02-03T20:18:09.147Z,100479.75
2023-02-03T20:20:37.496Z,100476.41
2023-02-03T20:23:03.929Z,100474.84
2023-02-03T20:25:30.539Z,100462.53
2023-02-03T20:27:57.798Z,100465.31
2023-02-03T20:30:24.248Z,100469.06
2023-02-03T20:32:50.637Z,100460.13
2023-02-03T20:35:19.490Z,100456.53
2023-02-03T20:37:46.187Z,100461.00
2023-02-03T20:40:18.355Z,100458.78
2023-02-03T20:42:44.999Z,100466.03
2023-02-03T20:45:15.905Z,100458.78
2023-02-03T20:47:43.025Z,100469.97
2023-02-03T20:50:41.462Z,100456.59
2023-02-03T20:53:13.810Z,100463.56
2023-02-03T20:55:40.880Z,100452.13
2023-02-03T20:58:28.439Z,100453.09
2023-02-03T21:00:54.940Z,100458.16
2023-02-03T21:03:21.447Z,100456.19
2023-02-03T21:05:47.963Z,100460.81
2023-02-03T21:08:16.257Z,100460.56
2023-02-03T21:10:44.951Z,100452.59
2023-02-03T21:13:25.248Z,100457.03
2023-02-03T21:16:02.402Z,100454.53
2023-02-03T21:18:47.120Z,100459.81
2023-02-03T21:21:19.943Z,100461.66
2023-02-03T21:23:47.670Z,100451.72
2023-02-03T21:26:43.336Z,100446.81
2023-02-03T21:29:25.168Z,100466.22
2023-02-03T21:31:52.442Z,100467.56
2023-02-03T21:34:26.274Z,100462.34
2023-02-03T21:36:52.672Z,100461.50
2023-02-03T21:39:21.998Z,100469.81
2023-02-03T21:41:48.400Z,100470.06
2023-02-03T21:44:33.567Z,100471.78
2023-02-03T21:47:21.477Z,100460.56
2023-02-03T21:49:47.774Z,100448.22
2023-02-03T21:52:14.316Z,100444.75
2023-02-03T21:54:43.447Z,100454.53
2023-02-03T21:57:13.959Z,100442.69
2023-02-03T21:59:40.831Z,100438.44
2023-02-03T22:02:46.553Z,100438.75
2023-02-03T22:05:16.414Z,100436.66
2023-02-03T22:07:43.039Z,100439.44
2023-02-03T22:10:09.696Z,100438.38
2023-02-03T22:12:36.045Z,100440.03
2023-02-03T22:15:02.719Z,100434.63
2023-02-03T22:17:29.104Z,100438.84
2023-02-03T22:19:55.445Z,100433.00
2023-02-03T22:22:21.849Z,100430.63
2023-02-03T22:24:48.529Z,100437.72
2023-02-03T22:27:14.884Z,100437.06
2023-02-03T22:29:41.278Z,100438.38
2023-02-03T22:32:07.619Z,100440.63
2023-02-03T22:34:34.064Z,100445.81
2023-02-03T22:37:00.474Z,100450.47
2023-02-03T22:39:26.975Z,100443.22
2023-02-03T22:41:53.425Z,100462.94
2023-02-03T22:44:19.833Z,100486.47
2023-02-03T22:46:46.267Z,100494.75
2023-02-03T22:49:12.661Z,100504.41
2023-02-03T22:51:39.048Z,100503.66
2023-02-03T22:54:05.645Z,100511.53
2023-02-03T22:56:32.031Z,100504.53
2023-02-03T22:58:58.519Z,100502.72
2023-02-03T23:01:24.976Z,100510.75
2023-02-03T23:03:51.341Z,100511.31
2023-02-03T23:06:17.987Z,100516.75
2023-02-03T23:08:44.353Z,100521.22
2023-02-03T23:11:11.066Z,100519.47
2023-02-03T23:13:37.463Z,100519.31
2023-02-03T23:16:05.560Z,100531.44
2023-02-03T23:18:32.000Z,100520.25
2023-02-03T23:21:01.190Z,100527.13
2023-02-03T23:23:27.619Z,100522.91
2023-02-03T23:25:54.082Z,100516.75
2023-02-03T23:28:20.541Z,100520.69
2023-02-03T23:30:47.189Z,100507.44
2023-02-03T23:33:13.911Z,100481.69
2023-02-03T23:35:40.574Z,100479.63
2023-02-03T23:38:06.920Z,100475.72
2023-02-03T23:40:33.556Z,100498.22
2023-02-03T23:43:00.114Z,100508.41
2023-02-03T23:45:26.563Z,100511.63
2023-02-03T23:47:53.071Z,100519.44
2023-02-03T23:50:19.469Z,100516.66
2023-02-03T23:52:49.213Z,100510.78
2023-02-03T23:55:18.948Z,100519.06
2023-02-03T23:57:45.628Z,100509.94
